首页
METAR-TAF:

METAR-TAF

机场 :

杜林機場

都灵, 意大利

纬度: 45-13N, 经度: 007-39E, 海拔: 301米

当前天气观测

该预报发布于27分钟前的11:50 UTC
风速3节,风向多变
温度 20°C
湿度 28%
气压 1028 hPa
能见度10公里或以上
1500米以下无云,无积雨云

METAR: LIMF 071150Z VRB03KT CAVOK 20/01 Q1028

时间: 14:17 (12:17 UTC)

预报

该预报发布于1小时和17分钟前的11:00 UTC
预报有效从07日的 12点(UTC)到 08日的 12点(UTC)
风速5节,风向多变
能见度10公里或以上
1500米以下无云,无积雨云

TAF: LIMF 071100Z 0712/0812 VRB05KT CAVOK

超过4000个机场的气象观测和天气预报(METAR&TAF报告)。

可查询的气象台以黄色和红色小点在地图上表示。

将鼠标移到小点上方,可查看气象台名称。

然后点击查看天气观测和预报。

如需切换地图:点击带黑十字的绿色按钮放大地图;点击带横线的绿色按钮缩小地图;或者点击绿色箭头查看邻近地区的地图。


METAR-TAF: